sensor_id;sensor_type;location;lat;lon;timestamp;temperature;humidity
31765;DHT22;18338;53.240;8.798;2023-06-14T00:00:22;12.90;99.90
31765;DHT22;18338;53.240;8.798;2023-06-14T00:02:49;12.90;99.90
31765;DHT22;18338;53.240;8.798;2023-06-14T00:05:16;12.90;99.90
31765;DHT22;18338;53.240;8.798;2023-06-14T00:07:43;12.90;99.90
31765;DHT22;18338;53.240;8.798;2023-06-14T00:10:11;12.90;99.90
31765;DHT22;18338;53.240;8.798;2023-06-14T00:12:39;12.80;99.90
31765;DHT22;18338;53.240;8.798;2023-06-14T00:15:06;12.90;99.90
31765;DHT22;18338;53.240;8.798;2023-06-14T00:17:33;12.80;99.90
31765;DHT22;18338;53.240;8.798;2023-06-14T00:20:02;12.80;99.90
31765;DHT22;18338;53.240;8.798;2023-06-14T00:22:31;12.80;99.90
31765;DHT22;18338;53.240;8.798;2023-06-14T00:24:59;12.70;99.90
31765;DHT22;18338;53.240;8.798;2023-06-14T00:27:40;12.70;99.90
31765;DHT22;18338;53.240;8.798;2023-06-14T00:30:08;12.70;99.90
31765;DHT22;18338;53.240;8.798;2023-06-14T00:32:35;12.60;99.90
31765;DHT22;18338;53.240;8.798;2023-06-14T00:35:02;12.70;99.90
31765;DHT22;18338;53.240;8.798;2023-06-14T00:37:28;12.70;99.90
31765;DHT22;18338;53.240;8.798;2023-06-14T00:39:55;12.60;99.90
31765;DHT22;18338;53.240;8.798;2023-06-14T00:42:26;12.50;99.90
31765;DHT22;18338;53.240;8.798;2023-06-14T00:44:53;12.50;99.90
31765;DHT22;18338;53.240;8.798;2023-06-14T00:47:22;12.40;99.90
31765;DHT22;18338;53.240;8.798;2023-06-14T00:49:50;12.50;99.90
31765;DHT22;18338;53.240;8.798;2023-06-14T00:52:18;12.40;99.90
31765;DHT22;18338;53.240;8.798;2023-06-14T00:54:45;12.40;99.90
31765;DHT22;18338;53.240;8.798;2023-06-14T00:57:12;12.40;99.90
31765;DHT22;18338;53.240;8.798;2023-06-14T00:59:44;12.30;99.90
31765;DHT22;18338;53.240;8.798;2023-06-14T01:02:12;12.30;99.90
31765;DHT22;18338;53.240;8.798;2023-06-14T01:04:39;12.30;99.90
31765;DHT22;18338;53.240;8.798;2023-06-14T01:07:41;12.20;99.90
31765;DHT22;18338;53.240;8.798;2023-06-14T01:13:14;12.20;99.90
31765;DHT22;18338;53.240;8.798;2023-06-14T01:15:43;12.20;99.90
31765;DHT22;18338;53.240;8.798;2023-06-14T01:18:11;12.10;99.90
31765;DHT22;18338;53.240;8.798;2023-06-14T01:20:45;12.10;99.90
31765;DHT22;18338;53.240;8.798;2023-06-14T01:23:21;12.10;99.90
31765;DHT22;18338;53.240;8.798;2023-06-14T01:25:49;12.10;99.90
31765;DHT22;18338;53.240;8.798;2023-06-14T01:28:21;12.00;99.90
31765;DHT22;18338;53.240;8.798;2023-06-14T01:30:51;12.00;99.90
31765;DHT22;18338;53.240;8.798;2023-06-14T01:33:21;12.00;99.90
31765;DHT22;18338;53.240;8.798;2023-06-14T01:35:50;12.00;99.90
31765;DHT22;18338;53.240;8.798;2023-06-14T01:38:23;11.90;99.90
31765;DHT22;18338;53.240;8.798;2023-06-14T01:40:53;11.90;99.90
31765;DHT22;18338;53.240;8.798;2023-06-14T01:43:20;11.90;99.90
31765;DHT22;18338;53.240;8.798;2023-06-14T01:45:48;11.80;99.90
31765;DHT22;18338;53.240;8.798;2023-06-14T01:48:15;11.80;99.90
31765;DHT22;18338;53.240;8.798;2023-06-14T01:50:42;11.80;99.90
31765;DHT22;18338;53.240;8.798;2023-06-14T01:53:10;11.80;99.90
31765;DHT22;18338;53.240;8.798;2023-06-14T01:55:37;11.80;99.90
31765;DHT22;18338;53.240;8.798;2023-06-14T01:58:04;11.80;99.90
31765;DHT22;18338;53.240;8.798;2023-06-14T02:00:32;11.80;99.90
31765;DHT22;18338;53.240;8.798;2023-06-14T02:03:01;11.80;99.90
31765;DHT22;18338;53.240;8.798;2023-06-14T02:05:28;11.70;99.90
31765;DHT22;18338;53.240;8.798;2023-06-14T02:07:57;11.70;99.90
31765;DHT22;18338;53.240;8.798;2023-06-14T02:10:24;11.70;99.90
31765;DHT22;18338;53.240;8.798;2023-06-14T02:12:51;11.70;99.90
31765;DHT22;18338;53.240;8.798;2023-06-14T02:15:18;11.60;99.90
31765;DHT22;18338;53.240;8.798;2023-06-14T02:17:46;11.60;99.90
31765;DHT22;18338;53.240;8.798;2023-06-14T02:20:16;11.70;99.90
31765;DHT22;18338;53.240;8.798;2023-06-14T02:22:44;11.70;99.90
31765;DHT22;18338;53.240;8.798;2023-06-14T02:25:12;11.60;99.90
31765;DHT22;18338;53.240;8.798;2023-06-14T02:27:39;11.70;99.90
31765;DHT22;18338;53.240;8.798;2023-06-14T02:30:06;11.60;99.90
31765;DHT22;18338;53.240;8.798;2023-06-14T02:32:33;11.60;99.90
31765;DHT22;18338;53.240;8.798;2023-06-14T02:35:03;11.60;99.90
31765;DHT22;18338;53.240;8.798;2023-06-14T02:37:30;11.70;99.90
31765;DHT22;18338;53.240;8.798;2023-06-14T02:39:57;11.60;99.90
31765;DHT22;18338;53.240;8.798;2023-06-14T02:42:24;11.60;99.90
31765;DHT22;18338;53.240;8.798;2023-06-14T02:44:50;11.60;99.90
31765;DHT22;18338;53.240;8.798;2023-06-14T02:47:18;11.60;99.90
31765;DHT22;18338;53.240;8.798;2023-06-14T02:49:45;11.60;99.90
31765;DHT22;18338;53.240;8.798;2023-06-14T02:52:15;11.70;99.90
31765;DHT22;18338;53.240;8.798;2023-06-14T02:54:42;11.60;99.90
31765;DHT22;18338;53.240;8.798;2023-06-14T02:57:08;11.70;99.90
31765;DHT22;18338;53.240;8.798;2023-06-14T02:59:35;11.80;99.90
31765;DHT22;18338;53.240;8.798;2023-06-14T03:02:02;11.70;99.90
31765;DHT22;18338;53.240;8.798;2023-06-14T03:04:29;11.60;99.90
31765;DHT22;18338;53.240;8.798;2023-06-14T03:06:59;11.60;99.90
31765;DHT22;18338;53.240;8.798;2023-06-14T03:09:26;11.60;99.90
31765;DHT22;18338;53.240;8.798;2023-06-14T03:11:54;11.60;99.90
31765;DHT22;18338;53.240;8.798;2023-06-14T03:14:21;11.60;99.90
31765;DHT22;18338;53.240;8.798;2023-06-14T03:16:48;11.60;99.90
31765;DHT22;18338;53.240;8.798;2023-06-14T03:19:17;11.60;99.90
31765;DHT22;18338;53.240;8.798;2023-06-14T03:21:43;11.60;99.90
31765;DHT22;18338;53.240;8.798;2023-06-14T03:24:11;11.60;99.90
31765;DHT22;18338;53.240;8.798;2023-06-14T03:26:38;11.60;99.90
31765;DHT22;18338;53.240;8.798;2023-06-14T03:29:05;11.60;99.90
31765;DHT22;18338;53.240;8.798;2023-06-14T03:31:33;11.70;99.90
31765;DHT22;18338;53.240;8.798;2023-06-14T03:34:02;11.70;99.90
31765;DHT22;18338;53.240;8.798;2023-06-14T03:36:28;11.70;99.90
31765;DHT22;18338;53.240;8.798;2023-06-14T03:38:55;11.70;99.90
31765;DHT22;18338;53.240;8.798;2023-06-14T03:41:22;11.70;99.90
31765;DHT22;18338;53.240;8.798;2023-06-14T03:43:49;11.80;99.90
31765;DHT22;18338;53.240;8.798;2023-06-14T03:46:15;11.90;99.90
31765;DHT22;18338;53.240;8.798;2023-06-14T03:48:42;11.90;99.90
31765;DHT22;18338;53.240;8.798;2023-06-14T03:51:09;11.90;99.90
31765;DHT22;18338;53.240;8.798;2023-06-14T03:53:36;12.00;99.90
31765;DHT22;18338;53.240;8.798;2023-06-14T03:56:19;12.00;99.90
31765;DHT22;18338;53.240;8.798;2023-06-14T03:58:46;12.00;99.90
31765;DHT22;18338;53.240;8.798;2023-06-14T04:01:14;12.10;99.90
31765;DHT22;18338;53.240;8.798;2023-06-14T04:03:40;12.10;99.90
31765;DHT22;18338;53.240;8.798;2023-06-14T04:06:07;12.10;99.90
31765;DHT22;18338;53.240;8.798;2023-06-14T04:08:34;12.10;99.90
31765;DHT22;18338;53.240;8.798;2023-06-14T04:11:02;12.20;99.90
31765;DHT22;18338;53.240;8.798;2023-06-14T04:13:28;12.20;99.90
31765;DHT22;18338;53.240;8.798;2023-06-14T04:15:55;12.20;99.90
31765;DHT22;18338;53.240;8.798;2023-06-14T04:18:24;12.30;99.90
31765;DHT22;18338;53.240;8.798;2023-06-14T04:20:51;12.30;99.90
31765;DHT22;18338;53.240;8.798;2023-06-14T04:23:17;12.40;99.90
31765;DHT22;18338;53.240;8.798;2023-06-14T04:25:45;12.40;99.90
31765;DHT22;18338;53.240;8.798;2023-06-14T04:28:12;12.40;99.90
31765;DHT22;18338;53.240;8.798;2023-06-14T04:30:42;12.50;99.90
31765;DHT22;18338;53.240;8.798;2023-06-14T04:33:09;12.50;99.90
31765;DHT22;18338;53.240;8.798;2023-06-14T04:35:37;12.60;99.90
31765;DHT22;18338;53.240;8.798;2023-06-14T04:38:04;12.60;99.90
31765;DHT22;18338;53.240;8.798;2023-06-14T04:40:32;12.60;99.90
31765;DHT22;18338;53.240;8.798;2023-06-14T04:43:00;12.70;99.90
31765;DHT22;18338;53.240;8.798;2023-06-14T04:45:27;12.70;99.90
31765;DHT22;18338;53.240;8.798;2023-06-14T04:48:01;12.80;99.90
31765;DHT22;18338;53.240;8.798;2023-06-14T04:50:28;12.90;99.90
31765;DHT22;18338;53.240;8.798;2023-06-14T04:52:56;12.90;99.90
31765;DHT22;18338;53.240;8.798;2023-06-14T04:55:23;13.00;99.90
31765;DHT22;18338;53.240;8.798;2023-06-14T04:57:51;13.00;99.90
31765;DHT22;18338;53.240;8.798;2023-06-14T05:00:20;13.20;99.90
31765;DHT22;18338;53.240;8.798;2023-06-14T05:02:47;13.20;99.90
31765;DHT22;18338;53.240;8.798;2023-06-14T05:05:15;13.20;99.90
31765;DHT22;18338;53.240;8.798;2023-06-14T05:07:42;13.40;99.90
31765;DHT22;18338;53.240;8.798;2023-06-14T05:10:09;13.40;99.90
31765;DHT22;18338;53.240;8.798;2023-06-14T05:12:36;13.50;99.90
31765;DHT22;18338;53.240;8.798;2023-06-14T05:15:03;13.60;99.90
31765;DHT22;18338;53.240;8.798;2023-06-14T05:17:31;13.70;99.90
31765;DHT22;18338;53.240;8.798;2023-06-14T05:19:57;13.80;99.90
31765;DHT22;18338;53.240;8.798;2023-06-14T05:22:24;13.90;99.90
31765;DHT22;18338;53.240;8.798;2023-06-14T05:24:51;14.00;99.90
31765;DHT22;18338;53.240;8.798;2023-06-14T05:27:18;14.10;99.90
31765;DHT22;18338;53.240;8.798;2023-06-14T05:29:45;14.20;99.90
31765;DHT22;18338;53.240;8.798;2023-06-14T05:32:11;14.30;99.90
31765;DHT22;18338;53.240;8.798;2023-06-14T05:34:38;14.30;99.90
31765;DHT22;18338;53.240;8.798;2023-06-14T05:37:05;14.50;99.90
31765;DHT22;18338;53.240;8.798;2023-06-14T05:39:32;14.60;99.90
31765;DHT22;18338;53.240;8.798;2023-06-14T05:41:59;14.70;99.90
31765;DHT22;18338;53.240;8.798;2023-06-14T05:44:26;14.80;99.90
31765;DHT22;18338;53.240;8.798;2023-06-14T05:46:52;14.80;99.90
31765;DHT22;18338;53.240;8.798;2023-06-14T05:49:19;14.90;99.90
31765;DHT22;18338;53.240;8.798;2023-06-14T05:51:46;15.10;99.90
31765;DHT22;18338;53.240;8.798;2023-06-14T05:54:12;15.20;99.90
31765;DHT22;18338;53.240;8.798;2023-06-14T05:56:39;15.40;99.90
31765;DHT22;18338;53.240;8.798;2023-06-14T05:59:05;15.40;99.90
31765;DHT22;18338;53.240;8.798;2023-06-14T06:01:32;15.50;99.90
31765;DHT22;18338;53.240;8.798;2023-06-14T06:04:00;15.60;99.90
31765;DHT22;18338;53.240;8.798;2023-06-14T06:06:27;15.70;99.90
31765;DHT22;18338;53.240;8.798;2023-06-14T06:08:53;15.90;99.90
31765;DHT22;18338;53.240;8.798;2023-06-14T06:11:20;16.00;99.90
31765;DHT22;18338;53.240;8.798;2023-06-14T06:13:47;16.10;99.90
31765;DHT22;18338;53.240;8.798;2023-06-14T06:16:14;16.20;99.90
31765;DHT22;18338;53.240;8.798;2023-06-14T06:18:41;16.30;99.90
31765;DHT22;18338;53.240;8.798;2023-06-14T06:21:10;16.50;99.90
31765;DHT22;18338;53.240;8.798;2023-06-14T06:23:37;16.60;99.90
31765;DHT22;18338;53.240;8.798;2023-06-14T06:26:04;16.70;99.90
31765;DHT22;18338;53.240;8.798;2023-06-14T06:28:31;16.90;99.90
31765;DHT22;18338;53.240;8.798;2023-06-14T06:30:57;17.00;99.90
31765;DHT22;18338;53.240;8.798;2023-06-14T06:33:24;17.10;99.90
31765;DHT22;18338;53.240;8.798;2023-06-14T06:35:51;17.20;99.90
31765;DHT22;18338;53.240;8.798;2023-06-14T06:38:18;17.30;99.90
31765;DHT22;18338;53.240;8.798;2023-06-14T06:40:45;17.40;99.90
31765;DHT22;18338;53.240;8.798;2023-06-14T06:43:12;17.50;99.90
31765;DHT22;18338;53.240;8.798;2023-06-14T06:45:40;17.60;99.90
31765;DHT22;18338;53.240;8.798;2023-06-14T06:48:06;17.80;99.90
31765;DHT22;18338;53.240;8.798;2023-06-14T06:50:33;17.90;99.90
31765;DHT22;18338;53.240;8.798;2023-06-14T06:53:00;18.00;99.90
31765;DHT22;18338;53.240;8.798;2023-06-14T06:55:27;18.10;99.90
31765;DHT22;18338;53.240;8.798;2023-06-14T06:57:53;18.20;99.90
31765;DHT22;18338;53.240;8.798;2023-06-14T07:00:21;18.30;99.90
31765;DHT22;18338;53.240;8.798;2023-06-14T07:02:47;18.40;99.90
31765;DHT22;18338;53.240;8.798;2023-06-14T07:05:14;18.50;99.90
31765;DHT22;18338;53.240;8.798;2023-06-14T07:07:41;18.60;99.90
31765;DHT22;18338;53.240;8.798;2023-06-14T07:10:08;18.80;99.90
31765;DHT22;18338;53.240;8.798;2023-06-14T07:12:35;18.90;99.90
31765;DHT22;18338;53.240;8.798;2023-06-14T07:15:06;19.00;99.90
31765;DHT22;18338;53.240;8.798;2023-06-14T07:17:34;19.00;99.90
31765;DHT22;18338;53.240;8.798;2023-06-14T07:20:03;19.10;99.90
31765;DHT22;18338;53.240;8.798;2023-06-14T07:22:40;19.20;99.90
31765;DHT22;18338;53.240;8.798;2023-06-14T07:25:11;19.40;99.90
31765;DHT22;18338;53.240;8.798;2023-06-14T07:27:43;19.50;99.90
31765;DHT22;18338;53.240;8.798;2023-06-14T07:30:10;19.60;99.90
31765;DHT22;18338;53.240;8.798;2023-06-14T07:32:38;19.70;99.90
31765;DHT22;18338;53.240;8.798;2023-06-14T07:35:05;19.80;99.90
31765;DHT22;18338;53.240;8.798;2023-06-14T07:37:33;19.70;99.90
31765;DHT22;18338;53.240;8.798;2023-06-14T07:39:59;19.80;99.90
31765;DHT22;18338;53.240;8.798;2023-06-14T07:42:26;19.90;99.90
31765;DHT22;18338;53.240;8.798;2023-06-14T07:44:52;20.00;99.90
31765;DHT22;18338;53.240;8.798;2023-06-14T07:47:20;20.20;99.90
31765;DHT22;18338;53.240;8.798;2023-06-14T07:49:46;20.30;99.90
31765;DHT22;18338;53.240;8.798;2023-06-14T07:52:13;20.50;99.90
31765;DHT22;18338;53.240;8.798;2023-06-14T07:54:40;20.60;99.90
31765;DHT22;18338;53.240;8.798;2023-06-14T07:57:07;20.60;99.90
31765;DHT22;18338;53.240;8.798;2023-06-14T07:59:35;20.70;99.90
31765;DHT22;18338;53.240;8.798;2023-06-14T08:02:02;20.90;99.90
31765;DHT22;18338;53.240;8.798;2023-06-14T08:04:29;21.00;99.90
31765;DHT22;18338;53.240;8.798;2023-06-14T08:06:56;21.20;99.90
31765;DHT22;18338;53.240;8.798;2023-06-14T08:09:23;21.30;99.90
31765;DHT22;18338;53.240;8.798;2023-06-14T08:11:51;22.20;99.90
31765;DHT22;18338;53.240;8.798;2023-06-14T08:14:17;24.20;99.30
31765;DHT22;18338;53.240;8.798;2023-06-14T08:16:44;26.40;92.30
31765;DHT22;18338;53.240;8.798;2023-06-14T08:19:11;28.30;89.90
31765;DHT22;18338;53.240;8.798;2023-06-14T08:21:38;29.60;81.20
31765;DHT22;18338;53.240;8.798;2023-06-14T08:24:05;30.20;76.20
31765;DHT22;18338;53.240;8.798;2023-06-14T08:26:32;30.60;72.20
31765;DHT22;18338;53.240;8.798;2023-06-14T08:28:58;31.40;70.00
31765;DHT22;18338;53.240;8.798;2023-06-14T08:31:25;32.10;68.40
31765;DHT22;18338;53.240;8.798;2023-06-14T08:33:52;32.80;66.90
31765;DHT22;18338;53.240;8.798;2023-06-14T08:36:18;32.40;63.20
31765;DHT22;18338;53.240;8.798;2023-06-14T08:38:46;32.50;61.80
31765;DHT22;18338;53.240;8.798;2023-06-14T08:41:20;31.50;61.60
31765;DHT22;18338;53.240;8.798;2023-06-14T08:43:47;32.50;62.20
31765;DHT22;18338;53.240;8.798;2023-06-14T08:46:17;32.80;62.00
31765;DHT22;18338;53.240;8.798;2023-06-14T08:48:49;33.10;61.50
31765;DHT22;18338;53.240;8.798;2023-06-14T08:51:20;34.10;59.50
31765;DHT22;18338;53.240;8.798;2023-06-14T08:53:54;33.80;59.30
31765;DHT22;18338;53.240;8.798;2023-06-14T08:56:30;34.80;57.90
31765;DHT22;18338;53.240;8.798;2023-06-14T08:58:58;34.90;57.90
31765;DHT22;18338;53.240;8.798;2023-06-14T09:01:34;34.50;57.80
31765;DHT22;18338;53.240;8.798;2023-06-14T09:04:01;34.70;58.10
31765;DHT22;18338;53.240;8.798;2023-06-14T09:06:29;35.30;57.40
31765;DHT22;18338;53.240;8.798;2023-06-14T09:08:56;35.30;55.10
31765;DHT22;18338;53.240;8.798;2023-06-14T09:11:23;35.10;56.20
31765;DHT22;18338;53.240;8.798;2023-06-14T09:13:50;36.20;55.20
31765;DHT22;18338;53.240;8.798;2023-06-14T09:16:17;36.90;54.60
31765;DHT22;18338;53.240;8.798;2023-06-14T09:18:45;36.50;54.00
31765;DHT22;18338;53.240;8.798;2023-06-14T09:21:15;36.40;53.90
31765;DHT22;18338;53.240;8.798;2023-06-14T09:23:44;35.30;53.90
31765;DHT22;18338;53.240;8.798;2023-06-14T09:26:16;35.10;55.50
31765;DHT22;18338;53.240;8.798;2023-06-14T09:28:48;35.90;54.40
31765;DHT22;18338;53.240;8.798;2023-06-14T09:31:16;35.50;54.10
31765;DHT22;18338;53.240;8.798;2023-06-14T09:33:45;35.00;53.70
31765;DHT22;18338;53.240;8.798;2023-06-14T09:36:22;34.90;55.30
31765;DHT22;18338;53.240;8.798;2023-06-14T09:38:59;35.40;54.60
31765;DHT22;18338;53.240;8.798;2023-06-14T09:41:33;35.60;55.20
31765;DHT22;18338;53.240;8.798;2023-06-14T09:44:01;35.50;53.10
31765;DHT22;18338;53.240;8.798;2023-06-14T09:46:34;36.00;53.90
31765;DHT22;18338;53.240;8.798;2023-06-14T09:49:02;36.50;54.00
31765;DHT22;18338;53.240;8.798;2023-06-14T09:51:30;36.30;53.10
31765;DHT22;18338;53.240;8.798;2023-06-14T09:54:02;36.30;53.00
31765;DHT22;18338;53.240;8.798;2023-06-14T09:56:34;36.60;54.10
31765;DHT22;18338;53.240;8.798;2023-06-14T09:59:04;36.70;52.20
31765;DHT22;18338;53.240;8.798;2023-06-14T10:01:34;36.70;52.20
31765;DHT22;18338;53.240;8.798;2023-06-14T10:04:06;37.40;51.60
31765;DHT22;18338;53.240;8.798;2023-06-14T10:06:41;36.90;51.20
31765;DHT22;18338;53.240;8.798;2023-06-14T10:09:09;37.00;52.30
31765;DHT22;18338;53.240;8.798;2023-06-14T10:11:37;38.20;51.90
31765;DHT22;18338;53.240;8.798;2023-06-14T10:14:12;38.30;50.50
31765;DHT22;18338;53.240;8.798;2023-06-14T10:17:04;38.70;50.80
31765;DHT22;18338;53.240;8.798;2023-06-14T10:19:44;38.10;50.20
31765;DHT22;18338;53.240;8.798;2023-06-14T10:22:18;38.00;50.50
31765;DHT22;18338;53.240;8.798;2023-06-14T10:24:46;39.40;50.10
31765;DHT22;18338;53.240;8.798;2023-06-14T10:27:15;39.10;48.90
31765;DHT22;18338;53.240;8.798;2023-06-14T10:32:24;38.80;49.60
31765;DHT22;18338;53.240;8.798;2023-06-14T10:34:59;38.10;49.70
31765;DHT22;18338;53.240;8.798;2023-06-14T10:37:26;38.40;50.00
31765;DHT22;18338;53.240;8.798;2023-06-14T10:39:53;38.90;48.90
31765;DHT22;18338;53.240;8.798;2023-06-14T10:42:20;35.60;51.00
31765;DHT22;18338;53.240;8.798;2023-06-14T10:44:50;35.20;53.00
31765;DHT22;18338;53.240;8.798;2023-06-14T10:52:31;38.40;49.70
31765;DHT22;18338;53.240;8.798;2023-06-14T10:55:09;40.00;47.70
31765;DHT22;18338;53.240;8.798;2023-06-14T10:57:42;41.60;48.00
31765;DHT22;18338;53.240;8.798;2023-06-14T11:00:13;42.00;47.60
31765;DHT22;18338;53.240;8.798;2023-06-14T11:05:54;40.40;45.80
31765;DHT22;18338;53.240;8.798;2023-06-14T11:08:39;41.10;47.00
31765;DHT22;18338;53.240;8.798;2023-06-14T11:11:08;39.00;46.80
31765;DHT22;18338;53.240;8.798;2023-06-14T11:13:45;37.40;48.60
31765;DHT22;18338;53.240;8.798;2023-06-14T11:16:25;38.50;48.60
31765;DHT22;18338;53.240;8.798;2023-06-14T11:18:52;39.80;48.70
31765;DHT22;18338;53.240;8.798;2023-06-14T11:21:19;40.00;46.60
31765;DHT22;18338;53.240;8.798;2023-06-14T11:23:50;38.20;47.80
31765;DHT22;18338;53.240;8.798;2023-06-14T11:26:42;36.80;49.00
31765;DHT22;18338;53.240;8.798;2023-06-14T11:29:09;34.70;51.50
31765;DHT22;18338;53.240;8.798;2023-06-14T11:31:36;36.30;51.20
31765;DHT22;18338;53.240;8.798;2023-06-14T11:34:03;37.60;50.50
31765;DHT22;18338;53.240;8.798;2023-06-14T11:36:31;40.00;49.10
31765;DHT22;18338;53.240;8.798;2023-06-14T11:39:02;40.70;47.10
31765;DHT22;18338;53.240;8.798;2023-06-14T11:41:43;39.20;46.70
31765;DHT22;18338;53.240;8.798;2023-06-14T11:44:11;37.70;49.30
31765;DHT22;18338;53.240;8.798;2023-06-14T11:46:38;38.10;47.70
31765;DHT22;18338;53.240;8.798;2023-06-14T11:49:07;39.00;48.20
31765;DHT22;18338;53.240;8.798;2023-06-14T11:51:34;40.20;46.20
31765;DHT22;18338;53.240;8.798;2023-06-14T11:54:02;41.90;45.70
31765;DHT22;18338;53.240;8.798;2023-06-14T11:56:30;42.00;45.30
31765;DHT22;18338;53.240;8.798;2023-06-14T11:58:58;42.60;46.50
31765;DHT22;18338;53.240;8.798;2023-06-14T12:01:25;41.30;44.60
31765;DHT22;18338;53.240;8.798;2023-06-14T12:03:53;39.10;47.10
31765;DHT22;18338;53.240;8.798;2023-06-14T12:06:27;39.30;48.60
31765;DHT22;18338;53.240;8.798;2023-06-14T12:08:56;37.40;48.60
31765;DHT22;18338;53.240;8.798;2023-06-14T12:11:23;38.10;48.40
31765;DHT22;18338;53.240;8.798;2023-06-14T12:13:49;36.30;48.30
31765;DHT22;18338;53.240;8.798;2023-06-14T12:16:17;36.50;50.50
31765;DHT22;18338;53.240;8.798;2023-06-14T12:18:43;38.40;48.80
31765;DHT22;18338;53.240;8.798;2023-06-14T12:21:10;38.90;47.90
31765;DHT22;18338;53.240;8.798;2023-06-14T12:23:48;36.30;48.60
31765;DHT22;18338;53.240;8.798;2023-06-14T12:26:17;34.00;51.30
31765;DHT22;18338;53.240;8.798;2023-06-14T12:28:45;32.20;53.80
31765;DHT22;18338;53.240;8.798;2023-06-14T12:31:14;31.70;54.90
31765;DHT22;18338;53.240;8.798;2023-06-14T12:33:41;33.00;56.30
31765;DHT22;18338;53.240;8.798;2023-06-14T12:36:09;34.00;51.90
31765;DHT22;18338;53.240;8.798;2023-06-14T12:38:37;33.20;53.50
31765;DHT22;18338;53.240;8.798;2023-06-14T12:41:04;34.00;55.40
31765;DHT22;18338;53.240;8.798;2023-06-14T12:43:31;36.30;51.50
31765;DHT22;18338;53.240;8.798;2023-06-14T12:45:58;38.20;49.40
31765;DHT22;18338;53.240;8.798;2023-06-14T12:48:25;37.20;48.80
31765;DHT22;18338;53.240;8.798;2023-06-14T12:50:53;36.10;50.40
31765;DHT22;18338;53.240;8.798;2023-06-14T12:53:20;35.20;51.60
31765;DHT22;18338;53.240;8.798;2023-06-14T12:55:47;34.00;53.00
31765;DHT22;18338;53.240;8.798;2023-06-14T12:58:14;35.10;52.20
31765;DHT22;18338;53.240;8.798;2023-06-14T13:00:40;36.60;50.70
31765;DHT22;18338;53.240;8.798;2023-06-14T13:03:07;36.80;49.60
31765;DHT22;18338;53.240;8.798;2023-06-14T13:05:34;36.20;50.50
31765;DHT22;18338;53.240;8.798;2023-06-14T13:08:01;35.50;51.20
31765;DHT22;18338;53.240;8.798;2023-06-14T13:10:28;37.00;50.50
31765;DHT22;18338;53.240;8.798;2023-06-14T13:12:55;38.50;49.00
31765;DHT22;18338;53.240;8.798;2023-06-14T13:15:24;38.90;48.90
31765;DHT22;18338;53.240;8.798;2023-06-14T13:17:51;40.80;46.80
31765;DHT22;18338;53.240;8.798;2023-06-14T13:20:18;41.60;45.00
31765;DHT22;18338;53.240;8.798;2023-06-14T13:22:47;39.70;46.10
31765;DHT22;18338;53.240;8.798;2023-06-14T13:25:13;37.30;47.10
31765;DHT22;18338;53.240;8.798;2023-06-14T13:27:40;35.80;49.30
31765;DHT22;18338;53.240;8.798;2023-06-14T13:30:07;34.90;50.60
31765;DHT22;18338;53.240;8.798;2023-06-14T13:32:34;33.80;51.90
31765;DHT22;18338;53.240;8.798;2023-06-14T13:35:00;33.60;52.70
31765;DHT22;18338;53.240;8.798;2023-06-14T13:37:28;32.80;53.70
31765;DHT22;18338;53.240;8.798;2023-06-14T13:39:54;32.60;54.70
31765;DHT22;18338;53.240;8.798;2023-06-14T13:42:21;32.10;54.60
31765;DHT22;18338;53.240;8.798;2023-06-14T13:44:48;32.10;55.30
31765;DHT22;18338;53.240;8.798;2023-06-14T13:47:15;31.90;55.60
31765;DHT22;18338;53.240;8.798;2023-06-14T13:49:42;31.40;55.60
31765;DHT22;18338;53.240;8.798;2023-06-14T13:52:09;31.60;56.50
31765;DHT22;18338;53.240;8.798;2023-06-14T13:54:35;32.20;55.10
31765;DHT22;18338;53.240;8.798;2023-06-14T13:57:03;32.30;54.80
31765;DHT22;18338;53.240;8.798;2023-06-14T13:59:29;33.10;53.80
31765;DHT22;18338;53.240;8.798;2023-06-14T14:01:56;33.80;51.50
31765;DHT22;18338;53.240;8.798;2023-06-14T14:04:23;35.10;50.90
31765;DHT22;18338;53.240;8.798;2023-06-14T14:06:50;35.70;51.20
31765;DHT22;18338;53.240;8.798;2023-06-14T14:09:17;37.70;50.20
31765;DHT22;18338;53.240;8.798;2023-06-14T14:11:43;38.50;49.30
31765;DHT22;18338;53.240;8.798;2023-06-14T14:14:10;39.70;47.40
31765;DHT22;18338;53.240;8.798;2023-06-14T14:16:37;39.40;46.90
31765;DHT22;18338;53.240;8.798;2023-06-14T14:19:04;40.40;45.50
31765;DHT22;18338;53.240;8.798;2023-06-14T14:21:32;40.60;46.80
31765;DHT22;18338;53.240;8.798;2023-06-14T14:23:59;39.30;45.20
31765;DHT22;18338;53.240;8.798;2023-06-14T14:26:26;37.80;47.60
31765;DHT22;18338;53.240;8.798;2023-06-14T14:28:53;36.40;48.20
31765;DHT22;18338;53.240;8.798;2023-06-14T14:31:20;35.10;50.40
31765;DHT22;18338;53.240;8.798;2023-06-14T14:33:47;34.40;51.30
31765;DHT22;18338;53.240;8.798;2023-06-14T14:36:13;33.60;52.40
31765;DHT22;18338;53.240;8.798;2023-06-14T14:38:40;32.70;53.10
31765;DHT22;18338;53.240;8.798;2023-06-14T14:41:07;32.00;53.90
31765;DHT22;18338;53.240;8.798;2023-06-14T14:43:34;31.50;55.40
31765;DHT22;18338;53.240;8.798;2023-06-14T14:46:00;30.60;56.40
31765;DHT22;18338;53.240;8.798;2023-06-14T14:48:27;29.80;56.90
31765;DHT22;18338;53.240;8.798;2023-06-14T14:50:54;29.20;57.70
31765;DHT22;18338;53.240;8.798;2023-06-14T14:53:20;29.00;59.40
31765;DHT22;18338;53.240;8.798;2023-06-14T14:55:47;29.60;58.10
31765;DHT22;18338;53.240;8.798;2023-06-14T14:58:14;30.30;57.70
31765;DHT22;18338;53.240;8.798;2023-06-14T15:00:47;32.20;55.70
31765;DHT22;18338;53.240;8.798;2023-06-14T15:03:14;33.20;54.80
31765;DHT22;18338;53.240;8.798;2023-06-14T15:05:41;34.50;53.50
31765;DHT22;18338;53.240;8.798;2023-06-14T15:08:08;34.10;52.30
31765;DHT22;18338;53.240;8.798;2023-06-14T15:10:38;33.10;52.70
31765;DHT22;18338;53.240;8.798;2023-06-14T15:13:08;32.20;54.40
31765;DHT22;18338;53.240;8.798;2023-06-14T15:15:35;31.90;55.20
31765;DHT22;18338;53.240;8.798;2023-06-14T15:18:02;32.70;54.40
31765;DHT22;18338;53.240;8.798;2023-06-14T15:20:29;34.10;53.80
31765;DHT22;18338;53.240;8.798;2023-06-14T15:22:56;34.40;51.50
31765;DHT22;18338;53.240;8.798;2023-06-14T15:25:29;34.40;52.40
31765;DHT22;18338;53.240;8.798;2023-06-14T15:27:56;34.00;51.50
31765;DHT22;18338;53.240;8.798;2023-06-14T15:30:23;33.90;52.50
31765;DHT22;18338;53.240;8.798;2023-06-14T15:32:50;33.70;53.90
31765;DHT22;18338;53.240;8.798;2023-06-14T15:35:17;33.30;53.00
31765;DHT22;18338;53.240;8.798;2023-06-14T15:37:48;32.90;54.80
31765;DHT22;18338;53.240;8.798;2023-06-14T15:40:15;32.60;54.20
31765;DHT22;18338;53.240;8.798;2023-06-14T15:42:42;31.90;55.60
31765;DHT22;18338;53.240;8.798;2023-06-14T15:45:09;31.40;55.90
31765;DHT22;18338;53.240;8.798;2023-06-14T15:47:36;30.70;56.80
31765;DHT22;18338;53.240;8.798;2023-06-14T15:50:04;30.30;57.90